createdAt,value
2023-06-17T00:00:35.037Z,62.76
2023-06-17T00:03:24.991Z,63.13
2023-06-17T00:06:13.704Z,63.04
2023-06-17T00:09:02.261Z,62.98
2023-06-17T00:11:52.526Z,62.93
2023-06-17T00:14:41.923Z,62.76
2023-06-17T00:17:31.995Z,62.96
2023-06-17T00:20:24.723Z,63.41
2023-06-17T00:23:13.371Z,63.10
2023-06-17T00:26:01.876Z,63.19
2023-06-17T00:28:50.418Z,63.15
2023-06-17T00:31:39.251Z,62.75
2023-06-17T00:34:27.882Z,62.98
2023-06-17T00:37:18.020Z,62.47
2023-06-17T00:40:09.638Z,62.41
2023-06-17T00:42:58.163Z,62.30
2023-06-17T00:45:46.765Z,62.41
2023-06-17T00:48:35.417Z,61.93
2023-06-17T00:51:25.934Z,62.63
2023-06-17T00:54:16.882Z,62.64
2023-06-17T00:57:06.435Z,63.27
2023-06-17T00:59:55.157Z,63.40
2023-06-17T01:02:46.046Z,63.57
2023-06-17T01:05:35.880Z,64.06
2023-06-17T01:08:30.008Z,64.91
2023-06-17T01:11:21.713Z,64.94
2023-06-17T01:14:11.659Z,65.01
2023-06-17T01:17:00.461Z,64.92
2023-06-17T01:19:49.998Z,65.63
2023-06-17T01:22:38.667Z,66.19
2023-06-17T01:25:31.404Z,66.03
2023-06-17T01:28:21.525Z,66.66
2023-06-17T01:31:13.845Z,66.87
2023-06-17T01:34:04.226Z,66.95
2023-06-17T01:36:53.850Z,67.34
2023-06-17T01:39:45.138Z,68.21
2023-06-17T01:42:37.739Z,68.60
2023-06-17T01:45:26.998Z,68.91
2023-06-17T01:48:15.549Z,69.21
2023-06-17T01:51:06.312Z,69.50
2023-06-17T01:53:55.097Z,69.73
2023-06-17T01:56:43.848Z,69.99
2023-06-17T01:59:34.125Z,70.62
2023-06-17T02:02:22.644Z,71.10
2023-06-17T02:05:11.455Z,72.54
2023-06-17T02:08:00.997Z,73.69
2023-06-17T02:10:49.505Z,74.29
2023-06-17T02:13:38.019Z,75.40
2023-06-17T02:16:28.213Z,75.50
2023-06-17T02:19:17.716Z,75.02
2023-06-17T02:22:06.526Z,75.11
2023-06-17T02:24:55.184Z,75.93
2023-06-17T02:27:43.967Z,75.32
2023-06-17T02:30:32.486Z,74.96
2023-06-17T02:33:22.392Z,75.50
2023-06-17T02:36:12.953Z,76.19
2023-06-17T02:39:01.739Z,76.01
2023-06-17T02:41:50.463Z,76.00
2023-06-17T02:44:38.898Z,75.80
2023-06-17T02:47:27.691Z,76.28
2023-06-17T02:50:22.487Z,76.72
2023-06-17T02:53:11.721Z,76.46
2023-06-17T02:56:00.507Z,76.71
2023-06-17T02:58:49.300Z,76.45
2023-06-17T03:01:40.288Z,77.78
2023-06-17T03:04:36.159Z,77.81
2023-06-17T03:07:26.569Z,77.43
2023-06-17T03:10:16.611Z,78.05
2023-06-17T03:13:05.182Z,79.02
2023-06-17T03:15:54.504Z,79.21
2023-06-17T03:18:43.275Z,80.11
2023-06-17T03:21:32.128Z,80.45
2023-06-17T03:24:22.462Z,81.69
2023-06-17T03:27:11.323Z,81.47
2023-06-17T03:29:59.818Z,81.44
2023-06-17T03:32:50.651Z,81.67
2023-06-17T03:35:39.382Z,81.66
2023-06-17T03:38:27.841Z,81.89
2023-06-17T03:41:17.819Z,82.27
2023-06-17T03:44:06.532Z,83.18
2023-06-17T03:46:55.029Z,83.92
2023-06-17T03:49:45.382Z,84.20
2023-06-17T03:52:33.855Z,84.14
2023-06-17T03:55:23.631Z,83.37
2023-06-17T03:58:15.927Z,83.23
2023-06-17T04:01:04.403Z,83.24
2023-06-17T04:03:53.175Z,82.54
2023-06-17T04:06:41.792Z,82.39
2023-06-17T04:09:30.618Z,82.36
2023-06-17T04:12:19.090Z,82.47
2023-06-17T04:15:10.144Z,81.80
2023-06-17T04:17:58.730Z,81.99
2023-06-17T04:20:47.263Z,81.95
2023-06-17T04:23:35.761Z,81.97
2023-06-17T04:26:24.505Z,81.55
2023-06-17T04:29:12.997Z,81.38
2023-06-17T04:32:03.629Z,80.99
2023-06-17T04:34:52.522Z,80.90
2023-06-17T04:37:41.545Z,79.59
2023-06-17T04:40:30.014Z,78.90
2023-06-17T04:43:18.814Z,78.41
2023-06-17T04:46:09.210Z,79.00
2023-06-17T04:48:59.852Z,78.69
2023-06-17T04:51:49.602Z,78.58
2023-06-17T04:54:38.362Z,77.97
2023-06-17T04:57:27.119Z,77.28
2023-06-17T05:00:19.323Z,76.70
2023-06-17T05:03:09.320Z,76.58
2023-06-17T05:05:59.297Z,75.80
2023-06-17T05:08:47.816Z,75.90
2023-06-17T05:11:36.344Z,75.68
2023-06-17T05:14:25.090Z,74.96
2023-06-17T05:17:14.138Z,74.37
2023-06-17T05:20:02.686Z,74.25
2023-06-17T05:22:52.630Z,74.14
2023-06-17T05:25:41.203Z,73.27
2023-06-17T05:28:29.896Z,72.06
2023-06-17T05:31:18.562Z,72.13
2023-06-17T05:34:07.106Z,71.97
2023-06-17T05:36:55.614Z,70.83
2023-06-17T05:39:45.729Z,70.16
2023-06-17T05:42:34.224Z,68.97
2023-06-17T05:45:22.746Z,68.87
2023-06-17T05:48:11.430Z,68.19
2023-06-17T05:51:00.007Z,67.39
2023-06-17T05:53:48.531Z,65.73
2023-06-17T05:56:38.464Z,65.71
2023-06-17T05:59:29.937Z,65.23
2023-06-17T06:02:18.433Z,64.80
2023-06-17T06:05:08.267Z,64.06
2023-06-17T06:07:56.874Z,63.12
2023-06-17T06:10:45.722Z,62.55
2023-06-17T06:13:35.851Z,61.57
2023-06-17T06:16:24.452Z,60.34
2023-06-17T06:19:13.413Z,60.19
2023-06-17T06:22:01.979Z,60.19
2023-06-17T06:24:50.478Z,58.82
2023-06-17T06:27:38.983Z,58.73
2023-06-17T06:30:28.857Z,58.10
2023-06-17T06:33:17.411Z,57.99
2023-06-17T06:36:06.571Z,57.11
2023-06-17T06:38:55.104Z,56.82
2023-06-17T06:41:43.624Z,56.81
2023-06-17T06:44:32.169Z,55.45
2023-06-17T06:47:22.028Z,55.27
2023-06-17T06:50:11.061Z,54.77
2023-06-17T06:52:59.554Z,53.44
2023-06-17T06:55:48.050Z,53.62
2023-06-17T06:58:37.078Z,53.04
2023-06-17T07:01:27.960Z,52.78
2023-06-17T07:04:18.056Z,51.20
2023-06-17T07:07:06.617Z,50.38
2023-06-17T07:09:55.401Z,49.91
2023-06-17T07:12:44.026Z,49.90
2023-06-17T07:15:32.805Z,49.68
2023-06-17T07:18:21.603Z,49.71
2023-06-17T07:21:11.917Z,49.41
2023-06-17T07:24:00.695Z,48.60
2023-06-17T07:26:49.341Z,48.42
2023-06-17T07:29:37.816Z,47.33
2023-06-17T07:32:26.413Z,46.08
2023-06-17T07:35:15.037Z,46.38
2023-06-17T07:38:05.012Z,45.43
2023-06-17T07:40:53.731Z,46.03
2023-06-17T07:43:42.354Z,45.62
2023-06-17T07:46:32.810Z,44.63
2023-06-17T07:49:21.471Z,43.41
2023-06-17T07:52:10.288Z,43.28
2023-06-17T07:55:00.342Z,42.85
2023-06-17T07:57:50.667Z,42.41
2023-06-17T08:00:39.231Z,42.44
2023-06-17T08:03:28.178Z,41.77
2023-06-17T08:06:17.484Z,41.65
2023-06-17T08:09:05.966Z,41.69
2023-06-17T08:11:55.828Z,41.89
2023-06-17T08:14:44.322Z,41.39
2023-06-17T08:17:32.893Z,41.09
2023-06-17T08:20:23.092Z,40.98
2023-06-17T08:23:12.088Z,39.96
2023-06-17T08:26:00.625Z,39.85
2023-06-17T08:28:51.159Z,39.87
2023-06-17T08:31:39.925Z,41.17
2023-06-17T08:34:33.304Z,39.84
2023-06-17T08:37:22.274Z,40.48
2023-06-17T08:40:14.104Z,40.42
2023-06-17T08:43:04.434Z,38.94
2023-06-17T08:45:55.151Z,38.80
2023-06-17T08:48:45.550Z,38.55
2023-06-17T08:51:34.146Z,38.13
2023-06-17T08:54:23.783Z,38.17
2023-06-17T08:57:14.180Z,37.75
2023-06-17T09:00:03.430Z,36.08
2023-06-17T09:02:54.382Z,36.32
2023-06-17T09:05:43.120Z,36.54
2023-06-17T09:08:32.132Z,35.52
2023-06-17T09:11:23.074Z,34.77
2023-06-17T09:14:11.577Z,34.55
2023-06-17T09:17:02.033Z,35.02
2023-06-17T09:19:52.372Z,34.69
2023-06-17T09:22:42.105Z,32.96
2023-06-17T09:25:30.676Z,33.54
2023-06-17T09:28:19.374Z,33.65
2023-06-17T09:31:07.871Z,31.84
2023-06-17T09:33:56.556Z,31.53
2023-06-17T09:36:47.673Z,29.32
2023-06-17T09:39:42.221Z,30.29
2023-06-17T09:42:32.245Z,31.68
2023-06-17T09:45:24.876Z,32.87
2023-06-17T09:48:13.649Z,30.41
2023-06-17T09:51:06.617Z,30.89
2023-06-17T09:53:56.710Z,30.25
2023-06-17T09:56:45.587Z,29.91
2023-06-17T09:59:34.058Z,29.31
2023-06-17T10:02:22.682Z,28.89
2023-06-17T10:05:12.230Z,28.22
2023-06-17T10:08:01.124Z,25.76
2023-06-17T10:10:51.209Z,26.81
2023-06-17T10:13:42.221Z,27.25
2023-06-17T10:16:34.797Z,26.41
2023-06-17T10:19:27.799Z,25.30
2023-06-17T10:22:18.108Z,25.29
2023-06-17T10:25:10.682Z,25.09
2023-06-17T10:28:01.961Z,25.62
2023-06-17T10:30:52.985Z,25.69
2023-06-17T10:33:47.636Z,26.30
2023-06-17T10:36:37.133Z,26.39
2023-06-17T10:39:25.852Z,27.76
2023-06-17T10:42:15.550Z,28.69
2023-06-17T10:45:13.683Z,28.67
2023-06-17T10:48:17.813Z,28.30
2023-06-17T10:51:12.118Z,27.75
2023-06-17T10:54:00.722Z,27.73
2023-06-17T10:56:51.903Z,27.19
2023-06-17T10:59:40.752Z,27.22
2023-06-17T11:02:32.361Z,27.15
2023-06-17T11:05:21.194Z,26.99
2023-06-17T11:08:09.674Z,27.49
2023-06-17T11:11:11.988Z,27.34
2023-06-17T11:14:00.473Z,28.34
2023-06-17T11:16:49.191Z,29.03
2023-06-17T11:19:39.164Z,26.68
2023-06-17T11:22:27.735Z,26.25
2023-06-17T11:25:17.979Z,26.01
2023-06-17T11:28:07.088Z,25.76
2023-06-17T11:30:56.941Z,25.98
2023-06-17T11:33:46.049Z,26.09
2023-06-17T11:36:36.923Z,26.16
2023-06-17T11:39:25.931Z,24.69
2023-06-17T11:42:14.588Z,22.29
2023-06-17T11:45:04.510Z,21.84
2023-06-17T11:47:53.135Z,22.71
2023-06-17T11:50:41.680Z,22.81
2023-06-17T11:53:33.600Z,22.89
2023-06-17T11:56:23.110Z,22.60
2023-06-17T11:59:13.304Z,21.83
2023-06-17T12:02:01.864Z,22.08
2023-06-17T12:04:51.445Z,22.58
2023-06-17T12:07:40.907Z,22.88
2023-06-17T12:10:30.908Z,22.64
2023-06-17T12:13:19.404Z,23.02
2023-06-17T12:16:11.440Z,22.83
2023-06-17T12:19:00.315Z,22.55
2023-06-17T12:21:48.942Z,23.02
2023-06-17T12:24:38.073Z,22.53
2023-06-17T12:27:31.872Z,23.70
2023-06-17T12:30:20.429Z,23.44
2023-06-17T12:33:09.031Z,23.28
2023-06-17T12:35:57.589Z,24.05
2023-06-17T12:38:46.621Z,22.89
2023-06-17T12:41:36.741Z,23.16
2023-06-17T12:44:27.026Z,23.63
2023-06-17T12:47:15.582Z,22.77
2023-06-17T12:50:04.281Z,23.85
2023-06-17T12:52:55.357Z,23.70
2023-06-17T12:55:43.884Z,24.39
2023-06-17T12:58:32.640Z,24.94
2023-06-17T13:01:22.633Z,24.59
2023-06-17T13:04:11.237Z,25.04
2023-06-17T13:06:59.810Z,24.47
2023-06-17T13:09:48.355Z,23.51
2023-06-17T13:12:36.910Z,24.00
2023-06-17T13:15:25.588Z,23.97
2023-06-17T13:18:15.859Z,24.17
2023-06-17T13:21:04.520Z,24.39
2023-06-17T13:23:53.206Z,22.88
2023-06-17T13:26:41.866Z,23.17
2023-06-17T13:29:30.669Z,23.14
2023-06-17T13:32:19.884Z,22.28
2023-06-17T13:35:10.714Z,22.90
2023-06-17T13:38:00.227Z,23.83
2023-06-17T13:40:48.846Z,23.99
2023-06-17T13:43:37.608Z,24.32
2023-06-17T13:46:26.425Z,24.35
2023-06-17T13:49:15.061Z,24.12
2023-06-17T13:52:07.978Z,23.27
2023-06-17T13:54:56.681Z,24.01
2023-06-17T13:57:45.209Z,23.68
2023-06-17T14:00:34.393Z,23.72
2023-06-17T14:03:23.198Z,23.28
2023-06-17T14:06:11.813Z,23.92
2023-06-17T14:09:05.255Z,24.99
2023-06-17T14:11:53.755Z,25.92
2023-06-17T14:14:42.337Z,25.77
2023-06-17T14:17:31.549Z,26.19
2023-06-17T14:20:20.875Z,26.08
2023-06-17T14:23:09.544Z,25.35
2023-06-17T14:25:59.433Z,25.81
2023-06-17T14:28:47.968Z,25.67
2023-06-17T14:31:36.530Z,25.63
2023-06-17T14:34:25.131Z,26.00
2023-06-17T14:37:13.781Z,26.06
2023-06-17T14:40:02.326Z,27.48
2023-06-17T14:42:52.308Z,27.04
2023-06-17T14:45:40.863Z,27.29
2023-06-17T14:48:29.509Z,26.47
2023-06-17T14:51:18.022Z,27.23
2023-06-17T14:54:06.785Z,26.41
2023-06-17T14:56:55.425Z,26.09
2023-06-17T14:59:45.631Z,26.03
2023-06-17T15:02:50.665Z,26.24
2023-06-17T15:05:39.499Z,25.89
2023-06-17T15:08:28.867Z,25.75
2023-06-17T15:11:17.896Z,25.96
2023-06-17T15:14:06.703Z,25.90
2023-06-17T15:16:57.142Z,26.90
2023-06-17T15:19:46.489Z,27.99
2023-06-17T15:22:35.089Z,26.90
2023-06-17T15:25:23.591Z,26.29
2023-06-17T15:28:12.195Z,25.79
2023-06-17T15:31:00.714Z,25.11
2023-06-17T15:33:51.070Z,25.41
2023-06-17T15:36:39.626Z,25.17
2023-06-17T15:39:29.592Z,25.93
2023-06-17T15:42:18.139Z,25.49
2023-06-17T15:45:07.644Z,25.78
2023-06-17T15:47:58.821Z,26.54
2023-06-17T15:50:49.506Z,25.32
2023-06-17T15:53:38.021Z,26.12
2023-06-17T15:56:26.686Z,26.24
2023-06-17T15:59:15.495Z,26.25
2023-06-17T16:02:04.418Z,26.67
2023-06-17T16:04:55.025Z,26.10
2023-06-17T16:07:45.110Z,26.81
2023-06-17T16:10:33.666Z,26.75
2023-06-17T16:13:22.193Z,27.21
2023-06-17T16:16:10.976Z,26.95
2023-06-17T16:18:59.520Z,27.33
2023-06-17T16:21:48.021Z,27.02
2023-06-17T16:24:38.302Z,27.06
2023-06-17T16:27:27.010Z,26.92
2023-06-17T16:30:15.964Z,27.41
2023-06-17T16:33:04.576Z,28.60
2023-06-17T16:35:53.177Z,29.00
2023-06-17T16:38:41.686Z,28.03
2023-06-17T16:41:31.774Z,29.07
2023-06-17T16:44:20.613Z,28.68
2023-06-17T16:47:09.480Z,28.86
2023-06-17T16:49:58.187Z,28.61
2023-06-17T16:52:46.741Z,29.70
2023-06-17T16:55:35.580Z,28.73
2023-06-17T16:58:25.774Z,28.29
2023-06-17T17:01:14.428Z,29.16
2023-06-17T17:04:10.536Z,27.98
2023-06-17T17:07:01.801Z,28.57
2023-06-17T17:09:50.418Z,28.21
2023-06-17T17:12:38.936Z,28.24
2023-06-17T17:15:28.880Z,29.52
2023-06-17T17:18:17.521Z,29.80
2023-06-17T17:21:06.052Z,30.04
2023-06-17T17:23:54.594Z,29.97
2023-06-17T17:26:43.129Z,29.92
2023-06-17T17:29:31.742Z,30.15
2023-06-17T17:32:23.502Z,30.21
2023-06-17T17:35:12.263Z,34.04
2023-06-17T17:38:01.110Z,35.49
2023-06-17T17:40:49.770Z,35.63
2023-06-17T17:43:38.970Z,36.15
2023-06-17T17:46:28.264Z,36.26
2023-06-17T17:49:18.273Z,36.10
2023-06-17T17:52:07.201Z,36.40
2023-06-17T17:55:02.280Z,36.35
2023-06-17T17:57:51.586Z,38.42
2023-06-17T18:00:40.109Z,38.85
2023-06-17T18:03:28.710Z,39.17
2023-06-17T18:06:19.055Z,38.65
2023-06-17T18:09:07.908Z,40.00
2023-06-17T18:11:56.384Z,40.37
2023-06-17T18:14:44.913Z,40.50
2023-06-17T18:17:33.475Z,41.60
2023-06-17T18:20:22.330Z,41.30
2023-06-17T18:23:13.755Z,41.34
2023-06-17T18:26:02.298Z,41.72
2023-06-17T18:28:50.946Z,42.05
2023-06-17T18:31:42.604Z,41.36
2023-06-17T18:34:31.102Z,41.53
2023-06-17T18:37:21.350Z,43.43
2023-06-17T18:40:12.535Z,43.16
2023-06-17T18:43:01.086Z,45.01
2023-06-17T18:45:50.127Z,46.20
2023-06-17T18:48:39.098Z,47.57
2023-06-17T18:51:27.638Z,46.72
2023-06-17T18:54:16.241Z,47.21
2023-06-17T18:57:06.606Z,47.02
2023-06-17T18:59:56.122Z,47.69
2023-06-17T19:02:44.730Z,48.35
2023-06-17T19:05:33.328Z,48.47
2023-06-17T19:08:21.955Z,48.51
2023-06-17T19:11:13.584Z,48.42
2023-06-17T19:14:03.783Z,48.66
2023-06-17T19:16:52.372Z,48.61
2023-06-17T19:19:40.999Z,49.02
2023-06-17T19:22:29.524Z,49.13
2023-06-17T19:25:18.049Z,51.66
2023-06-17T19:28:06.581Z,51.71
2023-06-17T19:30:56.451Z,51.86
2023-06-17T19:33:45.067Z,51.05
2023-06-17T19:36:33.565Z,51.66
2023-06-17T19:39:22.104Z,52.05
2023-06-17T19:42:10.626Z,52.05
2023-06-17T19:44:59.136Z,52.29
2023-06-17T19:47:49.116Z,52.27
2023-06-17T19:50:37.711Z,52.43
2023-06-17T19:53:26.280Z,53.36
2023-06-17T19:56:14.791Z,53.73
2023-06-17T19:59:04.285Z,53.79
2023-06-17T20:01:52.906Z,54.50
2023-06-17T20:04:42.807Z,55.18
2023-06-17T20:07:31.701Z,55.27
2023-06-17T20:10:20.608Z,55.21
2023-06-17T20:13:09.428Z,55.73
2023-06-17T20:15:57.993Z,55.63
2023-06-17T20:18:46.606Z,55.89
2023-06-17T20:21:36.524Z,55.51
2023-06-17T20:24:25.144Z,55.36
2023-06-17T20:27:13.745Z,56.39
2023-06-17T20:30:02.368Z,57.04
2023-06-17T20:32:51.124Z,57.27
2023-06-17T20:35:39.850Z,57.55
2023-06-17T20:38:29.955Z,57.35
2023-06-17T20:41:18.554Z,57.97
2023-06-17T20:44:07.073Z,58.32
2023-06-17T20:47:00.472Z,58.58
2023-06-17T20:49:51.010Z,58.79
2023-06-17T20:52:39.622Z,59.11
2023-06-17T20:55:31.498Z,59.13
2023-06-17T20:58:20.088Z,59.69
2023-06-17T21:01:09.569Z,59.38
2023-06-17T21:03:58.115Z,60.15
2023-06-17T21:06:46.616Z,60.52
2023-06-17T21:09:35.177Z,60.94
2023-06-17T21:12:25.029Z,60.94
2023-06-17T21:15:13.520Z,61.55
2023-06-17T21:18:02.035Z,61.72
2023-06-17T21:20:50.588Z,62.17
2023-06-17T21:23:39.121Z,63.10
2023-06-17T21:26:28.067Z,63.18
2023-06-17T21:29:18.092Z,63.46
2023-06-17T21:32:07.590Z,63.75
2023-06-17T21:34:56.227Z,63.67
2023-06-17T21:37:44.756Z,64.03
2023-06-17T21:40:33.497Z,64.32
2023-06-17T21:43:22.063Z,64.43
2023-06-17T21:46:12.144Z,64.58
2023-06-17T21:49:00.901Z,64.62
2023-06-17T21:51:50.002Z,64.65
2023-06-17T21:54:38.662Z,64.54
2023-06-17T21:57:30.254Z,64.60
2023-06-17T22:00:19.988Z,64.26
2023-06-17T22:03:10.120Z,64.24
2023-06-17T22:05:58.845Z,63.97
2023-06-17T22:08:47.391Z,64.10
2023-06-17T22:11:35.917Z,64.26
2023-06-17T22:14:24.477Z,64.10
2023-06-17T22:17:13.069Z,64.20
2023-06-17T22:20:03.814Z,63.48
2023-06-17T22:22:52.320Z,63.36
2023-06-17T22:25:40.897Z,63.27
2023-06-17T22:28:29.441Z,63.40
2023-06-17T22:31:17.993Z,63.30
2023-06-17T22:34:06.512Z,63.24
2023-06-17T22:36:59.773Z,63.31
2023-06-17T22:39:48.339Z,62.81
2023-06-17T22:42:36.876Z,62.91
2023-06-17T22:45:25.407Z,62.45
2023-06-17T22:48:13.953Z,62.43
2023-06-17T22:51:02.830Z,62.48
2023-06-17T22:53:52.981Z,62.34
2023-06-17T22:56:42.308Z,61.81
2023-06-17T22:59:30.825Z,61.64
2023-06-17T23:02:19.417Z,61.75
2023-06-17T23:05:08.413Z,61.94
2023-06-17T23:07:56.980Z,62.16
2023-06-17T23:10:47.153Z,62.50
2023-06-17T23:13:35.737Z,62.36
2023-06-17T23:16:24.349Z,62.54
2023-06-17T23:19:12.913Z,62.84
2023-06-17T23:22:01.528Z,63.11
2023-06-17T23:24:50.063Z,63.03
2023-06-17T23:27:41.585Z,63.17
2023-06-17T23:30:30.232Z,63.15
2023-06-17T23:33:19.244Z,63.47
2023-06-17T23:36:08.801Z,63.99
2023-06-17T23:38:58.459Z,63.96
2023-06-17T23:41:47.045Z,63.95
2023-06-17T23:44:36.922Z,64.29
2023-06-17T23:47:25.481Z,64.39
2023-06-17T23:50:14.072Z,64.20
2023-06-17T23:53:02.582Z,64.19
2023-06-17T23:55:51.258Z,63.63
2023-06-17T23:58:39.940Z,63.96
